Time;durP1;ratioP1;P1;durP2;ratioP2;P2;SDS_P1;SDS_P2;PMS_P1;PMS_P2;Temp;Humidity;BMP_temperature;BMP_pressure;BME280_temperature;BME280_humidity;BME280_pressure;Samples;Min_cycle;Max_cycle;Signal;HPM_P1;HPM_P2
2022/03/08 00:01:06;;;;;;;12.35;5.63;;;;;;;4.34;46.50;102296.22;6216974;23;20005;-65
2022/03/08 00:03:35;;;;;;;9.65;5.35;;;;;;;4.36;47.33;102302.44;6215407;23;20431;-65
2022/03/08 00:06:01;;;;;;;9.00;5.97;;;;;;;4.25;46.97;102293.97;6216842;23;20058;-64
2022/03/08 00:08:26;;;;;;;9.75;5.22;;;;;;;4.26;47.34;102293.13;6217021;23;20005;-65
2022/03/08 00:10:52;;;;;;;8.98;5.53;;;;;;;4.22;47.28;102282.41;6216743;23;20309;-64
2022/03/08 00:13:18;;;;;;;9.45;5.68;;;;;;;4.22;46.93;102300.72;6216973;23;20005;-65
2022/03/08 00:15:45;;;;;;;9.23;5.82;;;;;;;4.15;47.12;102290.69;6217192;23;20481;-65
2022/03/08 00:18:11;;;;;;;10.00;6.00;;;;;;;4.19;47.41;102292.69;6216902;23;20001;-65
2022/03/08 00:20:38;;;;;;;7.53;5.05;;;;;;;4.24;47.00;102291.25;6216639;23;20038;-65
2022/03/08 00:23:04;;;;;;;9.93;5.40;;;;;;;4.28;46.66;102287.97;6216917;23;20043;-64
2022/03/08 00:25:30;;;;;;;8.18;5.18;;;;;;;4.21;46.39;102291.97;6216763;23;20008;-65
2022/03/08 00:27:56;;;;;;;10.43;5.13;;;;;;;4.18;46.67;102297.00;6216835;23;20331;-65
2022/03/08 00:30:24;;;;;;;12.10;5.40;;;;;;;4.13;46.33;102290.59;6216974;23;20005;-65
2022/03/08 00:32:51;;;;;;;8.73;5.20;;;;;;;4.15;47.07;102288.06;6216670;23;20086;-65
2022/03/08 00:35:17;;;;;;;9.43;5.15;;;;;;;4.18;46.67;102280.41;6216466;23;20422;-65
2022/03/08 00:37:44;;;;;;;7.32;5.35;;;;;;;4.17;47.13;102281.22;6217160;23;20009;-65
2022/03/08 00:40:11;;;;;;;8.07;5.38;;;;;;;4.12;47.50;102275.72;6216650;23;20393;-65
2022/03/08 00:42:36;;;;;;;8.93;5.47;;;;;;;4.13;46.84;102280.16;6216676;23;20004;-65
2022/03/08 00:45:03;;;;;;;8.05;5.15;;;;;;;4.11;46.94;102279.16;6216246;23;20095;-66
2022/03/08 00:47:30;;;;;;;14.50;5.47;;;;;;;4.14;46.84;102275.81;6216551;23;20008;-65
2022/03/08 00:49:55;;;;;;;10.88;5.32;;;;;;;4.13;47.04;102277.53;6216500;23;20005;-66
2022/03/08 00:52:21;;;;;;;8.68;5.13;;;;;;;4.15;46.33;102280.22;6216528;23;20000;-65
2022/03/08 00:54:46;;;;;;;8.02;5.35;;;;;;;4.10;46.63;102279.94;6216621;23;20008;-65
2022/03/08 00:57:12;;;;;;;8.50;4.88;;;;;;;4.09;46.77;102280.78;6216565;23;20036;-65
2022/03/08 00:59:38;;;;;;;8.77;5.22;;;;;;;4.04;46.75;102281.31;6216693;23;20018;-65
2022/03/08 01:02:04;;;;;;;7.32;5.10;;;;;;;3.96;46.50;102273.00;6216570;23;20323;-65
2022/03/08 01:04:29;;;;;;;10.00;5.22;;;;;;;3.97;47.20;102280.94;6216421;23;20063;-65
2022/03/08 01:06:55;;;;;;;10.10;5.47;;;;;;;3.91;47.25;102285.81;6215876;23;20005;-65
2022/03/08 01:09:21;;;;;;;9.52;5.20;;;;;;;3.94;47.62;102286.00;6216456;23;20086;-65
2022/03/08 01:11:49;;;;;;;8.13;5.30;;;;;;;3.95;46.88;102282.56;6216464;23;20011;-65
2022/03/08 01:14:15;;;;;;;8.93;4.88;;;;;;;3.89;47.59;102281.28;6216482;23;20004;-64
2022/03/08 01:16:40;;;;;;;8.52;4.90;;;;;;;3.73;47.89;102280.34;6216289;23;20496;-65
2022/03/08 01:19:06;;;;;;;8.48;5.20;;;;;;;3.73;47.56;102275.13;6216409;23;20088;-65
2022/03/08 01:21:36;;;;;;;7.75;5.13;;;;;;;3.79;47.62;102279.81;6216122;23;20004;-64
2022/03/08 01:24:03;;;;;;;8.85;5.15;;;;;;;3.82;46.71;102282.63;6216363;23;20566;-65
2022/03/08 01:26:29;;;;;;;9.18;5.20;;;;;;;3.89;47.77;102273.44;6216748;23;20427;-65
2022/03/08 01:28:55;;;;;;;11.45;4.90;;;;;;;3.94;46.38;102277.22;6217379;23;20007;-65
2022/03/08 01:31:22;;;;;;;7.72;4.75;;;;;;;3.94;46.90;102272.00;6216591;23;20005;-65
2022/03/08 01:33:49;;;;;;;7.85;4.82;;;;;;;3.95;47.00;102269.47;6216541;23;20009;-65
2022/03/08 01:36:15;;;;;;;9.85;5.38;;;;;;;3.96;47.01;102257.31;6216017;23;20005;-65
2022/03/08 01:38:41;;;;;;;9.95;5.10;;;;;;;3.95;47.00;102256.41;6216072;23;20028;-65
2022/03/08 01:41:07;;;;;;;7.25;4.93;;;;;;;3.94;46.53;102254.63;6216295;23;20004;-64
2022/03/08 01:43:32;;;;;;;7.32;4.75;;;;;;;3.90;47.47;102256.97;6215971;23;20108;-65
2022/03/08 01:45:59;;;;;;;8.10;4.88;;;;;;;3.81;46.96;102248.53;6215912;23;20317;-65
2022/03/08 01:48:25;;;;;;;10.77;5.10;;;;;;;3.77;47.26;102242.25;6216020;23;20000;-65
2022/03/08 01:50:52;;;;;;;6.82;4.63;;;;;;;3.71;47.67;102236.63;6215799;23;20015;-65
2022/03/08 01:53:17;;;;;;;9.15;4.90;;;;;;;3.70;47.69;102240.94;6216436;23;20042;-64
2022/03/08 01:55:43;;;;;;;7.93;4.90;;;;;;;3.64;47.20;102229.19;6216307;23;20445;-66
2022/03/08 01:58:11;;;;;;;14.43;5.10;;;;;;;3.59;47.48;102239.38;6215999;23;20454;-64
2022/03/08 02:00:37;;;;;;;7.47;5.00;;;;;;;3.51;47.98;102238.94;6214252;23;20008;-65
2022/03/08 02:03:03;;;;;;;8.30;4.90;;;;;;;3.48;48.13;102227.38;6216027;23;20084;-65
2022/03/08 02:05:28;;;;;;;6.78;4.68;;;;;;;3.54;48.02;102230.34;6215617;23;20001;-65
2022/03/08 02:07:54;;;;;;;7.30;4.63;;;;;;;3.55;47.75;102228.66;6215727;23;20008;-65
2022/03/08 02:10:20;;;;;;;8.68;5.22;;;;;;;3.57;47.99;102221.81;6216220;23;20004;-64
2022/03/08 02:12:47;;;;;;;10.43;4.95;;;;;;;3.57;47.76;102220.09;6215879;23;20446;-65
2022/03/08 02:15:15;;;;;;;8.23;5.35;;;;;;;3.57;47.43;102217.50;6214367;23;20008;-64
2022/03/08 02:17:41;;;;;;;7.65;4.97;;;;;;;3.54;47.75;102213.78;6214252;23;20418;-65
2022/03/08 02:20:08;;;;;;;7.75;4.80;;;;;;;3.47;47.88;102215.13;6216009;23;20072;-65
2022/03/08 02:22:35;;;;;;;8.20;5.03;;;;;;;3.37;47.81;102210.13;6215598;23;20422;-65
2022/03/08 02:25:02;;;;;;;8.10;4.78;;;;;;;3.34;48.79;102209.94;6215780;23;20012;-64
2022/03/08 02:27:27;;;;;;;8.02;5.10;;;;;;;3.28;48.59;102218.31;6215990;23;20024;-64
2022/03/08 02:29:53;;;;;;;8.02;5.10;;;;;;;3.25;48.42;102211.19;6215745;23;20008;-65
2022/03/08 02:32:18;;;;;;;9.27;4.75;;;;;;;3.23;48.76;102210.19;6215701;23;20019;-65
2022/03/08 02:34:44;;;;;;;10.57;6.07;;;;;;;3.24;48.72;102205.84;6215977;23;20000;-68
2022/03/08 02:37:11;;;;;;;7.30;5.07;;;;;;;3.24;48.89;102198.91;6215315;23;20039;-66
2022/03/08 02:39:38;;;;;;;11.00;4.88;;;;;;;3.22;48.80;102194.44;6215693;23;20004;-65
2022/03/08 02:42:04;;;;;;;8.15;4.85;;;;;;;3.11;49.20;102191.13;6215616;23;20005;-64
2022/03/08 02:44:30;;;;;;;8.65;5.38;;;;;;;3.07;49.16;102180.41;6215088;23;20040;-62
2022/03/08 02:46:56;;;;;;;7.00;5.03;;;;;;;2.96;49.22;102185.88;6215496;23;20009;-62
2022/03/08 02:49:22;;;;;;;7.75;5.25;;;;;;;2.93;49.55;102177.84;6215506;23;20051;-65
2022/03/08 02:51:48;;;;;;;9.77;5.57;;;;;;;2.79;49.64;102189.13;6215688;23;20012;-65
2022/03/08 02:54:13;;;;;;;8.38;4.75;;;;;;;2.85;49.93;102180.75;6215120;23;20005;-64
2022/03/08 02:56:40;;;;;;;7.78;5.30;;;;;;;2.88;49.52;102183.59;6215881;23;20411;-65
2022/03/08 02:59:06;;;;;;;8.07;5.13;;;;;;;2.89;49.83;102180.16;6215861;23;20004;-64
2022/03/08 03:01:33;;;;;;;8.73;5.20;;;;;;;2.87;49.53;102181.75;6215263;23;20312;-65
2022/03/08 03:03:59;;;;;;;8.20;5.30;;;;;;;2.85;49.57;102175.53;6215449;23;20000;-65
2022/03/08 03:06:24;;;;;;;9.52;5.13;;;;;;;2.80;50.10;102164.81;6215622;23;20011;-65
2022/03/08 03:08:49;;;;;;;7.50;4.97;;;;;;;2.87;50.32;102156.56;6215445;23;20043;-65
2022/03/08 03:11:15;;;;;;;9.93;5.22;;;;;;;2.94;49.67;102157.84;6215843;23;20009;-65
2022/03/08 03:13:40;;;;;;;8.13;5.10;;;;;;;3.03;49.76;102161.03;6215693;23;20439;-64
2022/03/08 03:16:06;;;;;;;7.15;4.65;;;;;;;3.05;48.87;102148.97;6215589;23;20004;-64
2022/03/08 03:18:32;;;;;;;6.53;5.00;;;;;;;3.02;49.30;102148.78;6215230;23;20062;-64
2022/03/08 03:20:57;;;;;;;8.55;5.38;;;;;;;3.04;49.42;102141.03;6215215;23;20090;-65
2022/03/08 03:23:22;;;;;;;7.72;5.32;;;;;;;2.98;49.05;102141.56;6215195;23;20007;-64
2022/03/08 03:25:48;;;;;;;10.07;5.03;;;;;;;2.92;50.31;102134.25;6215365;23;20005;-65
2022/03/08 03:28:13;;;;;;;9.30;5.18;;;;;;;2.91;49.70;102128.94;6215672;23;20004;-64
2022/03/08 03:30:40;;;;;;;8.55;5.03;;;;;;;2.87;49.87;102132.16;6215414;23;20008;-64
2022/03/08 03:33:06;;;;;;;9.35;5.18;;;;;;;2.87;50.06;102130.47;6215741;23;20005;-65
2022/03/08 03:35:32;;;;;;;7.60;5.28;;;;;;;2.88;50.02;102126.16;6215344;23;20331;-65
2022/03/08 03:37:57;;;;;;;8.23;4.90;;;;;;;2.88;49.72;102132.28;6215031;23;20421;-65
2022/03/08 03:40:23;;;;;;;7.40;5.28;;;;;;;2.88;50.06;102137.50;6215217;23;20427;-65
2022/03/08 03:42:48;;;;;;;8.32;5.25;;;;;;;2.90;49.97;102143.69;6215291;23;20001;-64
2022/03/08 03:45:15;;;;;;;8.70;5.38;;;;;;;2.87;49.80;102135.69;6215087;23;20309;-65
2022/03/08 03:47:41;;;;;;;8.43;5.50;;;;;;;2.85;49.89;102145.13;6215179;23;20005;-65
2022/03/08 03:50:08;;;;;;;8.05;5.40;;;;;;;2.81;50.22;102137.91;6215571;23;20466;-64
2022/03/08 03:52:34;;;;;;;8.63;5.70;;;;;;;2.74;50.50;102139.25;6215004;23;20032;-65
2022/03/08 03:55:00;;;;;;;9.10;5.53;;;;;;;2.73;50.41;102145.25;6215232;23;20039;-64
2022/03/08 03:57:25;;;;;;;8.07;5.55;;;;;;;2.70;50.94;102142.47;6215209;23;20419;-64
2022/03/08 03:59:51;;;;;;;9.85;5.43;;;;;;;2.67;50.86;102142.25;6215085;23;20089;-64
2022/03/08 04:02:16;;;;;;;10.95;5.90;;;;;;;2.64;50.84;102146.38;6215134;23;20431;-65
2022/03/08 04:04:42;;;;;;;10.68;5.82;;;;;;;2.55;51.33;102145.78;6215162;23;20008;-65
2022/03/08 04:07:07;;;;;;;7.95;5.43;;;;;;;2.49;51.08;102144.59;6216672;23;20016;-64
2022/03/08 04:09:32;;;;;;;7.45;5.13;;;;;;;2.40;51.28;102138.81;6216355;23;20378;-64
2022/03/08 04:11:58;;;;;;;7.95;5.55;;;;;;;2.34;51.88;102138.38;6216388;23;20330;-64
2022/03/08 04:14:25;;;;;;;8.43;5.82;;;;;;;2.30;51.55;102131.16;6217250;23;20068;-64
2022/03/08 04:16:52;;;;;;;9.98;5.85;;;;;;;2.29;52.26;102133.69;6217344;23;20426;-64
2022/03/08 04:19:17;;;;;;;9.95;5.45;;;;;;;2.29;52.59;102128.47;6219820;23;20005;-64
2022/03/08 04:21:43;;;;;;;8.45;5.60;;;;;;;2.22;52.20;102130.66;6218818;23;20449;-64
2022/03/08 04:24:08;;;;;;;9.52;5.78;;;;;;;2.17;52.14;102124.25;6217693;23;20011;-65
2022/03/08 04:26:34;;;;;;;8.65;5.68;;;;;;;2.13;52.52;102123.97;6217400;23;20012;-64
2022/03/08 04:28:59;;;;;;;8.68;5.47;;;;;;;2.09;52.53;102125.44;6217307;23;20005;-64
2022/03/08 04:31:24;;;;;;;8.63;5.75;;;;;;;2.05;52.82;102128.66;6217015;23;20084;-64
2022/03/08 04:33:50;;;;;;;9.63;5.68;;;;;;;2.04;52.75;102125.97;6216938;23;20079;-64
2022/03/08 04:36:15;;;;;;;8.27;5.57;;;;;;;2.07;53.02;102120.97;6217005;23;20005;-64
2022/03/08 04:38:41;;;;;;;8.65;5.43;;;;;;;2.04;53.10;102134.69;6216808;23;20091;-64
2022/03/08 04:41:06;;;;;;;9.30;5.60;;;;;;;2.02;53.07;102120.66;6216414;23;20331;-64
2022/03/08 04:43:33;;;;;;;8.95;5.57;;;;;;;2.06;53.10;102120.06;6216717;23;20079;-64
2022/03/08 04:45:59;;;;;;;9.02;5.70;;;;;;;2.08;52.83;102120.16;6216247;23;20017;-64
2022/03/08 04:48:24;;;;;;;9.57;5.80;;;;;;;2.06;52.81;102121.78;6216848;23;20083;-64
2022/03/08 04:50:49;;;;;;;8.70;5.97;;;;;;;2.05;53.21;102118.22;6216658;23;20001;-64
2022/03/08 04:53:15;;;;;;;7.85;5.50;;;;;;;2.03;52.93;102126.78;6216644;23;20450;-64
2022/03/08 04:55:40;;;;;;;8.15;5.80;;;;;;;2.09;52.91;102121.94;6216657;23;20048;-64
2022/03/08 04:58:06;;;;;;;8.27;5.20;;;;;;;2.10;52.68;102115.91;6216572;23;20008;-63
2022/03/08 05:00:32;;;;;;;10.20;5.90;;;;;;;2.08;53.17;102118.44;6216332;23;20080;-64
2022/03/08 05:02:59;;;;;;;9.70;5.80;;;;;;;2.04;52.80;102124.25;6216492;23;20338;-63
2022/03/08 05:05:24;;;;;;;7.63;5.40;;;;;;;2.07;53.12;102115.75;6216569;23;20378;-64
2022/03/08 05:07:50;;;;;;;8.73;5.75;;;;;;;2.07;53.09;102120.97;6216825;23;20391;-63
2022/03/08 05:10:15;;;;;;;9.50;5.82;;;;;;;2.09;52.97;102111.53;6216466;23;20004;-64
2022/03/08 05:12:42;;;;;;;8.23;5.68;;;;;;;2.08;52.69;102113.22;6216141;23;20364;-64
2022/03/08 05:15:08;;;;;;;9.68;5.57;;;;;;;1.96;53.22;102113.31;6216363;23;20005;-64
2022/03/08 05:17:36;;;;;;;9.23;5.25;;;;;;;1.97;53.47;102115.16;6215909;23;20028;-64
2022/03/08 05:20:03;;;;;;;9.48;5.82;;;;;;;1.96;53.23;102121.13;6216296;23;20004;-64
2022/03/08 05:22:29;;;;;;;9.25;5.70;;;;;;;1.96;53.62;102115.94;6216383;23;20000;-64
2022/03/08 05:24:54;;;;;;;11.20;5.55;;;;;;;1.93;53.36;102107.03;6216435;23;20123;-65
2022/03/08 05:27:19;;;;;;;10.07;5.50;;;;;;;1.89;53.67;102113.75;6216566;23;20024;-64
2022/03/08 05:29:45;;;;;;;8.20;5.57;;;;;;;1.86;53.82;102110.03;6216217;23;20428;-64
2022/03/08 05:32:11;;;;;;;8.57;5.68;;;;;;;1.81;53.73;102108.81;6216291;23;20431;-64
2022/03/08 05:34:36;;;;;;;9.02;5.70;;;;;;;1.78;53.75;102112.13;6216272;23;20005;-64
2022/03/08 05:37:02;;;;;;;8.55;5.75;;;;;;;1.79;54.71;102110.41;6216529;23;20063;-64
2022/03/08 05:39:29;;;;;;;14.43;8.05;;;;;;;1.79;55.04;102110.41;6216289;23;20074;-63
2022/03/08 05:41:54;;;;;;;11.43;6.15;;;;;;;1.66;54.19;102093.94;6215923;23;20362;-64
2022/03/08 05:44:19;;;;;;;8.70;5.72;;;;;;;1.70;54.46;102110.69;6216625;23;20063;-64
2022/03/08 05:46:45;;;;;;;10.13;5.85;;;;;;;1.67;54.46;102110.47;6216410;23;20019;-64
2022/03/08 05:49:11;;;;;;;7.75;5.70;;;;;;;1.52;55.66;102112.97;6216442;23;20032;-63
2022/03/08 05:51:36;;;;;;;7.45;5.38;;;;;;;1.49;55.48;102107.56;6216427;23;20007;-64
2022/03/08 05:54:02;;;;;;;9.23;5.85;;;;;;;1.53;55.18;102106.06;6216395;23;20055;-64
2022/03/08 05:56:27;;;;;;;8.63;5.50;;;;;;;1.54;54.91;102105.25;6216023;23;20008;-64
2022/03/08 05:58:53;;;;;;;8.90;5.75;;;;;;;1.49;55.41;102107.56;6216098;23;20447;-64
2022/03/08 06:01:18;;;;;;;8.88;5.82;;;;;;;1.50;55.50;102109.38;6215769;23;20415;-64
2022/03/08 06:03:50;;;;;;;10.27;6.03;;;;;;;1.49;55.02;102107.56;6215123;23;20027;-64
2022/03/08 06:06:15;;;;;;;9.68;5.82;;;;;;;1.47;55.29;102104.84;6215081;23;20084;-63
2022/03/08 06:08:41;;;;;;;9.52;5.70;;;;;;;1.43;55.16;102101.94;6215064;23;20036;-63
2022/03/08 06:11:06;;;;;;;10.98;6.15;;;;;;;1.41;56.27;102104.47;6215057;23;20005;-65
2022/03/08 06:13:32;;;;;;;10.40;6.00;;;;;;;1.35;55.87;102111.84;6214877;23;20482;-64
2022/03/08 06:15:57;;;;;;;8.05;5.78;;;;;;;1.37;56.44;102111.94;6214944;23;20012;-63
2022/03/08 06:18:23;;;;;;;9.27;6.60;;;;;;;1.36;55.85;102111.03;6215223;23;20075;-64
2022/03/08 06:20:48;;;;;;;10.20;5.82;;;;;;;1.39;56.32;102112.94;6214716;23;20013;-63
2022/03/08 06:23:14;;;;;;;10.82;6.30;;;;;;;1.43;56.09;102112.38;6215166;23;20009;-63
2022/03/08 06:25:39;;;;;;;11.85;6.28;;;;;;;1.50;56.02;102107.69;6214747;23;20005;-63
2022/03/08 06:28:05;;;;;;;8.63;5.90;;;;;;;1.66;55.18;102113.91;6214574;23;20072;-64
2022/03/08 06:30:31;;;;;;;10.30;6.55;;;;;;;1.71;55.62;102112.50;6215247;23;20091;-64
2022/03/08 06:32:57;;;;;;;10.70;6.40;;;;;;;1.72;55.32;102106.50;6213293;23;20059;-64
2022/03/08 06:35:22;;;;;;;9.90;6.20;;;;;;;1.82;54.86;102111.53;6214793;23;20074;-64
2022/03/08 06:37:48;;;;;;;12.48;6.18;;;;;;;1.91;54.59;102114.72;6214603;23;20009;-64
2022/03/08 06:40:13;;;;;;;10.73;6.10;;;;;;;1.97;54.47;102109.00;6214586;23;20008;-63
2022/03/08 06:42:39;;;;;;;9.52;6.30;;;;;;;1.99;55.01;102103.09;6214750;23;20011;-64
2022/03/08 06:45:10;;;;;;;10.07;6.10;;;;;;;2.02;54.46;102104.13;6212664;23;20457;-63
2022/03/08 06:47:36;;;;;;;10.10;6.20;;;;;;;2.12;54.09;102111.72;6214646;23;20280;-64
2022/03/08 06:50:02;;;;;;;10.52;6.30;;;;;;;2.20;53.77;102111.41;6214837;23;20005;-64
2022/03/08 06:52:28;;;;;;;7.85;5.50;;;;;;;2.28;53.21;102105.81;6214973;23;20015;-64
2022/03/08 06:54:53;;;;;;;11.52;5.90;;;;;;;2.39;53.43;102107.38;6214985;23;20004;-63
2022/03/08 06:57:19;;;;;;;9.45;5.80;;;;;;;2.49;53.05;102110.69;6214654;23;20039;-65
2022/03/08 06:59:44;;;;;;;10.25;6.40;;;;;;;2.63;52.28;102115.88;6214549;23;20004;-64
2022/03/08 07:02:09;;;;;;;10.18;6.22;;;;;;;2.78;51.70;102111.59;6214643;23;20058;-64
2022/03/08 07:04:35;;;;;;;11.43;6.18;;;;;;;2.94;51.65;102118.69;6214596;23;20004;-64
2022/03/08 07:07:01;;;;;;;9.55;6.03;;;;;;;3.00;51.05;102114.75;6214950;23;20083;-64
2022/03/08 07:09:27;;;;;;;8.90;6.30;;;;;;;3.15;50.83;102119.09;6214561;23;20012;-64
2022/03/08 07:11:55;;;;;;;11.00;6.20;;;;;;;3.33;50.40;102104.53;6214525;23;20005;-64
2022/03/08 07:14:20;;;;;;;11.68;5.68;;;;;;;3.46;50.45;102114.00;6214120;23;20004;-63
2022/03/08 07:16:47;;;;;;;9.55;5.90;;;;;;;3.57;49.58;102107.72;6214269;23;20005;-64
2022/03/08 07:19:13;;;;;;;8.10;5.85;;;;;;;3.69;49.81;102113.69;6214640;23;20087;-63
2022/03/08 07:21:39;;;;;;;8.27;5.93;;;;;;;3.69;49.89;102108.44;6214552;23;20055;-64
2022/03/08 07:24:05;;;;;;;10.05;6.15;;;;;;;3.79;49.18;102122.06;6214760;23;20086;-63
2022/03/08 07:26:31;;;;;;;9.25;6.30;;;;;;;3.89;49.12;102120.06;6214499;23;20004;-64
2022/03/08 07:28:56;;;;;;;11.95;5.90;;;;;;;3.99;48.37;102116.28;6214458;23;20011;-64
2022/03/08 07:31:22;;;;;;;10.60;6.30;;;;;;;4.07;48.53;102117.63;6214473;23;20009;-64
2022/03/08 07:33:51;;;;;;;9.38;5.90;;;;;;;4.17;48.70;102124.28;6214603;23;20083;-64
2022/03/08 07:36:16;;;;;;;10.20;6.10;;;;;;;4.30;47.97;102113.69;6214457;23;20011;-63
2022/03/08 07:38:42;;;;;;;12.05;6.50;;;;;;;4.43;47.14;102113.56;6214596;23;20000;-64
2022/03/08 07:41:07;;;;;;;10.60;6.35;;;;;;;4.54;46.94;102106.31;6215186;23;20012;-63
2022/03/08 07:43:37;;;;;;;12.38;6.35;;;;;;;4.65;46.34;102112.13;6216314;23;20005;-64
2022/03/08 07:46:04;;;;;;;7.53;5.93;;;;;;;4.67;46.52;102110.50;6216002;23;20092;-64
2022/03/08 07:48:30;;;;;;;9.63;6.20;;;;;;;4.75;46.49;102101.34;6216484;23;20055;-64
2022/03/08 07:50:56;;;;;;;9.15;6.57;;;;;;;4.90;45.82;102101.28;6216506;23;20009;-64
2022/03/08 07:53:21;;;;;;;10.18;6.82;;;;;;;5.03;45.05;102101.13;6216214;23;20076;-64
2022/03/08 07:55:47;;;;;;;10.75;6.28;;;;;;;5.02;45.15;102096.69;6216855;23;20001;-63
2022/03/08 07:58:14;;;;;;;11.40;6.03;;;;;;;5.15;45.43;102108.72;6214458;23;20105;-65
2022/03/08 08:00:41;;;;;;;8.48;6.03;;;;;;;5.25;45.32;102104.03;6216203;23;20104;-64
2022/03/08 08:03:07;;;;;;;11.43;7.03;;;;;;;5.40;44.44;102098.72;6216603;23;20005;-64
2022/03/08 08:05:34;;;;;;;9.10;6.50;;;;;;;5.56;44.16;102109.97;6216324;23;20009;-64
2022/03/08 08:08:02;;;;;;;10.43;6.07;;;;;;;5.49;43.87;102114.00;6216154;23;20004;-64
2022/03/08 08:10:27;;;;;;;10.55;6.38;;;;;;;5.50;43.63;102108.84;6216366;23;20001;-64
2022/03/08 08:12:53;;;;;;;11.43;6.25;;;;;;;5.63;43.83;102112.09;6216305;23;20079;-64
2022/03/08 08:15:20;;;;;;;7.55;5.57;;;;;;;5.68;43.04;102101.00;6215923;23;20015;-64
2022/03/08 08:17:47;;;;;;;9.13;5.90;;;;;;;5.75;42.63;102113.63;6216332;23;20088;-64
2022/03/08 08:20:12;;;;;;;7.78;5.38;;;;;;;5.86;43.07;102123.75;6216101;23;20092;-64
2022/03/08 08:22:38;;;;;;;10.85;5.80;;;;;;;5.92;43.33;102104.00;6216873;23;20009;-64
2022/03/08 08:25:05;;;;;;;7.60;5.55;;;;;;;6.12;41.78;102107.59;6217136;23;20009;-64
2022/03/08 08:27:31;;;;;;;11.40;5.60;;;;;;;6.36;41.12;102115.78;6217074;23;20005;-64
2022/03/08 08:29:56;;;;;;;10.60;6.00;;;;;;;6.58;41.16;102119.41;6216329;23;20011;-64
2022/03/08 08:32:22;;;;;;;9.32;6.05;;;;;;;6.75;40.53;102113.22;6216178;23;20131;-64
2022/03/08 08:34:47;;;;;;;9.68;6.03;;;;;;;6.86;40.34;102122.53;6216096;23;20339;-64
2022/03/08 08:37:13;;;;;;;7.40;5.70;;;;;;;7.12;39.62;102110.56;6216132;23;20327;-64
2022/03/08 08:39:39;;;;;;;8.40;5.70;;;;;;;7.23;38.30;102108.41;6216344;23;20028;-64
2022/03/08 08:42:06;;;;;;;7.78;5.47;;;;;;;7.35;37.83;102113.31;6215828;23;20005;-64
2022/03/08 08:44:32;;;;;;;8.32;5.43;;;;;;;7.24;37.79;102113.75;6215483;23;20001;-64
2022/03/08 08:46:58;;;;;;;11.27;5.07;;;;;;;7.30;37.49;102113.13;6215663;23;20031;-64
2022/03/08 08:49:25;;;;;;;8.63;5.30;;;;;;;7.43;38.62;102115.44;6215988;23;20415;-63
2022/03/08 08:51:51;;;;;;;7.45;5.40;;;;;;;7.53;37.88;102098.31;6215430;23;20032;-64
2022/03/08 08:54:17;;;;;;;9.80;5.50;;;;;;;7.75;37.83;102094.88;6215595;23;20399;-63
2022/03/08 08:56:42;;;;;;;9.48;5.68;;;;;;;8.06;36.03;102099.72;6216103;23;20012;-64
2022/03/08 08:59:11;;;;;;;10.07;5.20;;;;;;;7.96;36.19;102108.03;6215741;23;20069;-65
2022/03/08 09:01:36;;;;;;;6.32;4.97;;;;;;;7.92;36.99;102104.41;6215883;23;20079;-64
2022/03/08 09:04:03;;;;;;;11.70;5.72;;;;;;;7.86;36.30;102090.97;6213726;23;20339;-65
2022/03/08 09:06:30;;;;;;;8.80;5.50;;;;;;;7.75;37.64;102101.06;6213039;23;20066;-64
2022/03/08 09:08:59;;;;;;;7.68;5.22;;;;;;;7.85;35.91;102117.25;6215861;23;20024;-64
2022/03/08 09:11:25;;;;;;;6.95;4.90;;;;;;;7.71;36.35;102111.41;6215623;23;20001;-65
2022/03/08 09:13:50;;;;;;;9.20;5.30;;;;;;;7.66;36.90;102102.38;6215952;23;20005;-65
2022/03/08 09:16:16;;;;;;;11.35;5.32;;;;;;;7.64;35.97;102099.69;6215527;23;20313;-65
2022/03/08 09:18:43;;;;;;;7.47;5.15;;;;;;;7.75;36.09;102093.19;6215748;23;20084;-65
2022/03/08 09:21:10;;;;;;;9.18;5.18;;;;;;;8.04;36.47;102104.88;6213710;23;20335;-65
2022/03/08 09:23:36;;;;;;;6.70;4.90;;;;;;;8.02;36.24;102098.69;6215697;23;20419;-65
2022/03/08 09:26:01;;;;;;;10.25;5.32;;;;;;;8.02;36.50;102098.69;6215964;23;20059;-65
2022/03/08 09:28:27;;;;;;;7.82;4.63;;;;;;;8.28;35.70;102088.31;6215518;23;20004;-65
2022/03/08 09:30:52;;;;;;;7.80;4.95;;;;;;;8.28;35.54;102075.13;6215292;23;20005;-65
2022/03/08 09:33:18;;;;;;;8.50;5.20;;;;;;;8.37;34.98;102072.00;6215782;23;20011;-65
2022/03/08 09:35:43;;;;;;;13.18;5.00;;;;;;;8.45;35.43;102076.72;6215347;23;20012;-65
2022/03/08 09:38:11;;;;;;;10.02;5.22;;;;;;;8.60;35.30;102064.97;6215539;23;20011;-65
2022/03/08 09:40:38;;;;;;;9.43;5.13;;;;;;;8.82;34.98;102070.22;6215414;23;20148;-65
2022/03/08 09:43:03;;;;;;;10.25;5.15;;;;;;;8.95;34.49;102072.50;6215444;23;20076;-64
2022/03/08 09:45:29;;;;;;;7.65;5.22;;;;;;;8.75;33.18;102050.66;6215104;23;20040;-65
2022/03/08 09:47:55;;;;;;;9.95;5.45;;;;;;;8.67;33.80;102061.75;6215475;23;20022;-66
2022/03/08 09:50:20;;;;;;;11.27;5.15;;;;;;;8.77;33.90;102048.97;6215515;23;20032;-65
2022/03/08 09:52:46;;;;;;;10.70;4.65;;;;;;;9.00;33.59;102043.66;6215476;23;20051;-65
2022/03/08 09:55:14;;;;;;;8.30;5.18;;;;;;;8.80;33.78;102052.56;6215406;23;20036;-65
2022/03/08 09:57:42;;;;;;;8.02;4.80;;;;;;;8.69;34.18;102045.19;6215295;23;20378;-65
2022/03/08 10:00:09;;;;;;;6.78;4.80;;;;;;;8.90;34.98;102050.31;6213707;23;20004;-65
2022/03/08 10:03:09;;;;;;;11.00;5.05;;;;;;;9.08;34.57;102039.56;6215876;23;20047;-65
2022/03/08 10:05:40;;;;;;;6.90;4.47;;;;;;;9.18;32.47;102049.59;6123518;23;20010;-65
2022/03/08 10:08:13;;;;;;;9.07;4.82;;;;;;;9.26;31.75;102041.97;6123405;23;20017;-65
2022/03/08 10:11:03;;;;;;;6.95;4.63;;;;;;;9.34;32.76;102042.25;6123151;23;20010;-66
2022/03/08 10:13:32;;;;;;;7.10;4.97;;;;;;;9.30;31.51;102049.13;6123300;23;20018;-65
2022/03/08 10:16:22;;;;;;;6.70;4.63;;;;;;;9.32;33.04;102033.34;6123138;23;20006;-65
2022/03/08 10:18:54;;;;;;;8.13;4.82;;;;;;;9.49;32.86;102026.91;6122758;23;20017;-65
2022/03/08 10:21:51;;;;;;;6.93;4.75;;;;;;;9.70;32.81;102047.88;6122595;23;20096;-66
2022/03/08 10:24:31;;;;;;;6.53;4.45;;;;;;;9.88;31.66;102029.97;6123195;23;20014;-65
2022/03/08 10:27:06;;;;;;;7.45;4.95;;;;;;;9.78;31.45;102039.34;6123288;23;20034;-65
2022/03/08 10:29:38;;;;;;;9.10;4.45;;;;;;;9.94;31.59;102034.59;6122970;23;20014;-66
2022/03/08 10:32:05;;;;;;;;;;;;;;;10.07;30.62;102034.13;6123571;23;20085;-66
2022/03/08 10:34:31;;;;;;;6.72;4.57;;;;;;;10.23;31.36;102017.88;6123174;23;19908;-66
2022/03/08 10:37:15;;;;;;;11.05;5.00;;;;;;;10.38;30.74;102021.91;6123110;23;20306;-65
2022/03/08 10:39:54;;;;;;;6.63;4.65;;;;;;;10.27;29.88;102034.78;6098594;23;20092;-65
2022/03/08 10:42:40;;;;;;;7.70;4.70;;;;;;;10.17;30.82;102012.44;6214599;23;20000;-65
2022/03/08 10:45:18;;;;;;;15.82;5.13;;;;;;;10.17;30.08;102024.75;6217988;23;20032;-66
2022/03/08 10:47:47;;;;;;;8.65;4.65;;;;;;;10.24;30.44;102010.88;6215899;23;20084;-65
2022/03/08 10:50:14;;;;;;;6.65;4.88;;;;;;;10.36;30.72;102011.28;6215969;23;20088;-66
2022/03/08 10:52:43;;;;;;;8.38;4.75;;;;;;;10.49;29.93;102016.09;6214578;23;20004;-66
2022/03/08 10:55:17;;;;;;;7.25;4.45;;;;;;;10.64;30.47;102018.28;6215216;23;20098;-65
2022/03/08 10:57:49;;;;;;;7.43;4.65;;;;;;;10.61;29.60;102014.66;6215136;23;20004;-65
2022/03/08 11:00:17;;;;;;;7.68;5.00;;;;;;;10.42;30.13;102007.94;6214937;23;20005;-65
2022/03/08 11:02:49;;;;;;;7.22;4.82;;;;;;;10.38;30.57;102006.06;6215172;23;20319;-66
2022/03/08 11:05:16;;;;;;;10.43;5.10;;;;;;;10.30;30.18;102008.44;6213097;23;20371;-66
2022/03/08 11:07:42;;;;;;;11.15;5.10;;;;;;;10.41;30.03;101996.47;6214738;23;20012;-66
2022/03/08 11:10:10;;;;;;;9.07;5.18;;;;;;;10.19;30.58;101988.69;6213205;23;19997;-66
2022/03/08 11:12:36;;;;;;;10.43;4.90;;;;;;;10.37;31.23;101994.59;6214756;23;20001;-66
2022/03/08 11:15:04;;;;;;;8.90;5.07;;;;;;;10.54;31.10;102000.38;6214823;23;20004;-66
2022/03/08 11:17:32;;;;;;;8.15;5.15;;;;;;;10.66;30.63;101999.81;6214594;23;20066;-66
2022/03/08 11:19:59;;;;;;;8.23;5.00;;;;;;;10.75;30.98;101993.06;6214679;23;20400;-65
2022/03/08 11:22:28;;;;;;;6.30;4.90;;;;;;;10.88;30.37;101991.66;6214854;23;20015;-66
2022/03/08 11:24:55;;;;;;;9.38;5.10;;;;;;;11.02;29.92;101986.75;6214720;23;20079;-66
2022/03/08 11:27:22;;;;;;;7.93;5.15;;;;;;;10.97;29.68;101993.66;6214651;23;20280;-66
2022/03/08 11:29:49;;;;;;;7.20;5.07;;;;;;;10.92;29.69;101982.03;6214606;23;20011;-66